sensor_id;sensor_type;location;lat;lon;timestamp;temperature;humidity
83660;SHT30;73632;50.808;3.422;2024-02-14T00:02:16;9.21;87.23
83660;SHT30;73632;50.808;3.422;2024-02-14T00:04:42;9.27;87.31
83660;SHT30;73632;50.808;3.422;2024-02-14T00:07:07;9.32;86.96
83660;SHT30;73632;50.808;3.422;2024-02-14T00:09:33;9.35;87.11
83660;SHT30;73632;50.808;3.422;2024-02-14T00:11:58;9.38;87.02
83660;SHT30;73632;50.808;3.422;2024-02-14T00:14:24;9.40;86.81
83660;SHT30;73632;50.808;3.422;2024-02-14T00:16:49;9.40;86.86
83660;SHT30;73632;50.808;3.422;2024-02-14T00:19:16;9.43;86.80
83660;SHT30;73632;50.808;3.422;2024-02-14T00:21:41;9.42;86.77
83660;SHT30;73632;50.808;3.422;2024-02-14T00:24:07;9.45;86.66
83660;SHT30;73632;50.808;3.422;2024-02-14T00:26:32;9.36;87.10
83660;SHT30;73632;50.808;3.422;2024-02-14T00:28:58;9.42;86.93
83660;SHT30;73632;50.808;3.422;2024-02-14T00:31:23;9.42;87.01
83660;SHT30;73632;50.808;3.422;2024-02-14T00:33:48;9.40;87.25
83660;SHT30;73632;50.808;3.422;2024-02-14T00:36:14;9.40;87.36
83660;SHT30;73632;50.808;3.422;2024-02-14T00:38:40;9.40;87.28
83660;SHT30;73632;50.808;3.422;2024-02-14T00:41:05;9.39;87.41
83660;SHT30;73632;50.808;3.422;2024-02-14T00:43:31;9.46;87.16
83660;SHT30;73632;50.808;3.422;2024-02-14T00:45:56;9.45;87.37
83660;SHT30;73632;50.808;3.422;2024-02-14T00:48:22;9.46;87.40
83660;SHT30;73632;50.808;3.422;2024-02-14T00:50:48;9.43;87.71
83660;SHT30;73632;50.808;3.422;2024-02-14T00:53:13;9.39;87.78
83660;SHT30;73632;50.808;3.422;2024-02-14T00:55:39;9.39;87.95
83660;SHT30;73632;50.808;3.422;2024-02-14T00:58:04;9.45;87.76
83660;SHT30;73632;50.808;3.422;2024-02-14T01:00:30;9.43;87.84
83660;SHT30;73632;50.808;3.422;2024-02-14T01:02:57;9.49;87.50
83660;SHT30;73632;50.808;3.422;2024-02-14T01:05:23;9.49;87.40
83660;SHT30;73632;50.808;3.422;2024-02-14T01:07:48;9.56;87.21
83660;SHT30;73632;50.808;3.422;2024-02-14T01:10:14;9.56;87.51
83660;SHT30;73632;50.808;3.422;2024-02-14T01:12:39;9.56;87.61
83660;SHT30;73632;50.808;3.422;2024-02-14T01:15:06;9.55;87.51
83660;SHT30;73632;50.808;3.422;2024-02-14T01:17:31;9.58;87.66
83660;SHT30;73632;50.808;3.422;2024-02-14T01:19:56;9.58;87.53
83660;SHT30;73632;50.808;3.422;2024-02-14T01:22:23;9.66;87.29
83660;SHT30;73632;50.808;3.422;2024-02-14T01:24:49;9.66;87.17
83660;SHT30;73632;50.808;3.422;2024-02-14T01:27:14;9.68;87.10
83660;SHT30;73632;50.808;3.422;2024-02-14T01:29:41;9.68;87.14
83660;SHT30;73632;50.808;3.422;2024-02-14T01:32:07;9.66;87.27
83660;SHT30;73632;50.808;3.422;2024-02-14T01:34:35;9.70;87.32
83660;SHT30;73632;50.808;3.422;2024-02-14T01:37:00;9.70;87.29
83660;SHT30;73632;50.808;3.422;2024-02-14T01:39:25;9.65;87.45
83660;SHT30;73632;50.808;3.422;2024-02-14T01:41:51;9.62;87.64
83660;SHT30;73632;50.808;3.422;2024-02-14T01:44:17;9.60;87.96
83660;SHT30;73632;50.808;3.422;2024-02-14T01:46:44;9.66;87.58
83660;SHT30;73632;50.808;3.422;2024-02-14T01:49:10;9.68;87.69
83660;SHT30;73632;50.808;3.422;2024-02-14T01:51:40;9.68;87.78
83660;SHT30;73632;50.808;3.422;2024-02-14T01:54:08;9.69;87.82
83660;SHT30;73632;50.808;3.422;2024-02-14T01:56:34;9.65;87.84
83660;SHT30;73632;50.808;3.422;2024-02-14T01:59:00;9.72;87.72
83660;SHT30;73632;50.808;3.422;2024-02-14T02:01:26;9.75;87.50
83660;SHT30;73632;50.808;3.422;2024-02-14T02:03:52;9.73;87.48
83660;SHT30;73632;50.808;3.422;2024-02-14T02:06:17;9.72;87.63
83660;SHT30;73632;50.808;3.422;2024-02-14T02:08:43;9.82;87.35
83660;SHT30;73632;50.808;3.422;2024-02-14T02:11:09;9.83;87.32
83660;SHT30;73632;50.808;3.422;2024-02-14T02:13:35;9.76;87.43
83660;SHT30;73632;50.808;3.422;2024-02-14T02:16:00;9.82;87.35
83660;SHT30;73632;50.808;3.422;2024-02-14T02:18:30;9.82;87.37
83660;SHT30;73632;50.808;3.422;2024-02-14T02:20:56;9.82;87.55
83660;SHT30;73632;50.808;3.422;2024-02-14T02:23:22;9.82;87.54
83660;SHT30;73632;50.808;3.422;2024-02-14T02:25:48;9.85;87.54
83660;SHT30;73632;50.808;3.422;2024-02-14T02:28:13;9.82;87.55
83660;SHT30;73632;50.808;3.422;2024-02-14T02:30:39;9.82;87.61
83660;SHT30;73632;50.808;3.422;2024-02-14T02:33:05;9.83;87.74
83660;SHT30;73632;50.808;3.422;2024-02-14T02:35:32;9.90;87.64
83660;SHT30;73632;50.808;3.422;2024-02-14T02:37:58;9.89;87.65
83660;SHT30;73632;50.808;3.422;2024-02-14T02:40:24;9.90;87.61
83660;SHT30;73632;50.808;3.422;2024-02-14T02:42:50;9.92;87.71
83660;SHT30;73632;50.808;3.422;2024-02-14T02:45:16;9.96;87.57
83660;SHT30;73632;50.808;3.422;2024-02-14T02:47:41;9.87;87.88
83660;SHT30;73632;50.808;3.422;2024-02-14T02:50:07;9.87;88.55
83660;SHT30;73632;50.808;3.422;2024-02-14T02:52:33;9.80;89.58
83660;SHT30;73632;50.808;3.422;2024-02-14T02:54:59;9.72;90.14
83660;SHT30;73632;50.808;3.422;2024-02-14T02:57:26;9.66;90.49
83660;SHT30;73632;50.808;3.422;2024-02-14T02:59:52;9.66;90.66
83660;SHT30;73632;50.808;3.422;2024-02-14T03:02:19;9.69;90.66
83660;SHT30;73632;50.808;3.422;2024-02-14T03:04:46;9.70;90.63
83660;SHT30;73632;50.808;3.422;2024-02-14T03:07:12;9.78;90.19
83660;SHT30;73632;50.808;3.422;2024-02-14T03:09:37;9.78;89.95
83660;SHT30;73632;50.808;3.422;2024-02-14T03:12:03;9.79;89.76
83660;SHT30;73632;50.808;3.422;2024-02-14T03:14:32;9.79;89.74
83660;SHT30;73632;50.808;3.422;2024-02-14T03:17:02;9.83;89.92
83660;SHT30;73632;50.808;3.422;2024-02-14T03:19:28;9.82;89.94
83660;SHT30;73632;50.808;3.422;2024-02-14T03:21:54;9.83;90.06
83660;SHT30;73632;50.808;3.422;2024-02-14T03:24:20;9.78;90.22
83660;SHT30;73632;50.808;3.422;2024-02-14T03:26:45;9.83;90.13
83660;SHT30;73632;50.808;3.422;2024-02-14T03:29:12;9.87;90.12
83660;SHT30;73632;50.808;3.422;2024-02-14T03:31:37;9.82;89.82
83660;SHT30;73632;50.808;3.422;2024-02-14T03:34:03;9.89;89.77
83660;SHT30;73632;50.808;3.422;2024-02-14T03:36:28;9.90;89.53
83660;SHT30;73632;50.808;3.422;2024-02-14T03:38:59;9.87;89.57
83660;SHT30;73632;50.808;3.422;2024-02-14T03:41:29;9.96;89.16
83660;SHT30;73632;50.808;3.422;2024-02-14T03:43:54;9.99;89.04
83660;SHT30;73632;50.808;3.422;2024-02-14T03:46:23;10.00;88.99
83660;SHT30;73632;50.808;3.422;2024-02-14T03:48:49;10.03;88.93
83660;SHT30;73632;50.808;3.422;2024-02-14T03:51:14;10.03;88.96
83660;SHT30;73632;50.808;3.422;2024-02-14T03:53:41;10.09;88.82
83660;SHT30;73632;50.808;3.422;2024-02-14T03:56:06;10.06;89.20
83660;SHT30;73632;50.808;3.422;2024-02-14T03:58:35;9.97;89.69
83660;SHT30;73632;50.808;3.422;2024-02-14T04:01:05;9.97;89.66
83660;SHT30;73632;50.808;3.422;2024-02-14T04:03:30;10.02;89.58
83660;SHT30;73632;50.808;3.422;2024-02-14T04:05:56;10.03;89.54
83660;SHT30;73632;50.808;3.422;2024-02-14T04:08:22;9.96;89.94
83660;SHT30;73632;50.808;3.422;2024-02-14T04:10:47;9.97;89.98
83660;SHT30;73632;50.808;3.422;2024-02-14T04:13:15;9.96;90.23
83660;SHT30;73632;50.808;3.422;2024-02-14T04:15:40;9.92;90.23
83660;SHT30;73632;50.808;3.422;2024-02-14T04:18:08;9.97;89.98
83660;SHT30;73632;50.808;3.422;2024-02-14T04:20:33;9.97;89.76
83660;SHT30;73632;50.808;3.422;2024-02-14T04:22:58;10.00;89.74
83660;SHT30;73632;50.808;3.422;2024-02-14T04:25:24;10.04;89.48
83660;SHT30;73632;50.808;3.422;2024-02-14T04:27:49;10.03;89.40
83660;SHT30;73632;50.808;3.422;2024-02-14T04:30:14;10.06;89.21
83660;SHT30;73632;50.808;3.422;2024-02-14T04:32:40;10.09;89.08
83660;SHT30;73632;50.808;3.422;2024-02-14T04:35:05;10.10;89.03
83660;SHT30;73632;50.808;3.422;2024-02-14T04:37:31;10.10;88.85
83660;SHT30;73632;50.808;3.422;2024-02-14T04:39:58;10.10;88.97
83660;SHT30;73632;50.808;3.422;2024-02-14T04:42:24;10.14;88.80
83660;SHT30;73632;50.808;3.422;2024-02-14T04:44:50;10.14;88.73
83660;SHT30;73632;50.808;3.422;2024-02-14T04:47:15;10.17;88.47
83660;SHT30;73632;50.808;3.422;2024-02-14T04:49:40;10.20;88.43
83660;SHT30;73632;50.808;3.422;2024-02-14T04:52:06;10.21;88.37
83660;SHT30;73632;50.808;3.422;2024-02-14T04:54:33;10.20;88.30
83660;SHT30;73632;50.808;3.422;2024-02-14T04:56:58;10.20;88.26
83660;SHT30;73632;50.808;3.422;2024-02-14T04:59:24;10.27;88.07
83660;SHT30;73632;50.808;3.422;2024-02-14T05:01:49;10.24;88.26
83660;SHT30;73632;50.808;3.422;2024-02-14T05:04:15;10.26;88.08
83660;SHT30;73632;50.808;3.422;2024-02-14T05:06:42;10.26;88.17
83660;SHT30;73632;50.808;3.422;2024-02-14T05:09:07;10.26;88.12
83660;SHT30;73632;50.808;3.422;2024-02-14T05:11:35;10.24;88.24
83660;SHT30;73632;50.808;3.422;2024-02-14T05:14:01;10.21;88.24
83660;SHT30;73632;50.808;3.422;2024-02-14T05:16:27;10.29;88.07
83660;SHT30;73632;50.808;3.422;2024-02-14T05:18:52;10.24;88.06
83660;SHT30;73632;50.808;3.422;2024-02-14T05:21:20;10.23;88.21
83660;SHT30;73632;50.808;3.422;2024-02-14T05:23:46;10.30;88.10
83660;SHT30;73632;50.808;3.422;2024-02-14T05:26:12;10.32;88.12
83660;SHT30;73632;50.808;3.422;2024-02-14T05:28:37;10.36;87.95
83660;SHT30;73632;50.808;3.422;2024-02-14T05:31:02;10.40;87.87
83660;SHT30;73632;50.808;3.422;2024-02-14T05:33:28;10.41;87.80
83660;SHT30;73632;50.808;3.422;2024-02-14T05:35:54;10.47;87.62
83660;SHT30;73632;50.808;3.422;2024-02-14T05:38:19;10.43;87.78
83660;SHT30;73632;50.808;3.422;2024-02-14T05:40:48;10.43;87.90
83660;SHT30;73632;50.808;3.422;2024-02-14T05:43:15;10.50;87.74
83660;SHT30;73632;50.808;3.422;2024-02-14T05:45:40;10.47;87.78
83660;SHT30;73632;50.808;3.422;2024-02-14T05:48:07;10.48;87.77
83660;SHT30;73632;50.808;3.422;2024-02-14T05:50:33;10.45;87.90
83660;SHT30;73632;50.808;3.422;2024-02-14T05:52:58;10.48;87.80
83660;SHT30;73632;50.808;3.422;2024-02-14T05:55:24;10.48;87.73
83660;SHT30;73632;50.808;3.422;2024-02-14T05:57:50;10.50;87.77
83660;SHT30;73632;50.808;3.422;2024-02-14T06:00:18;10.43;87.89
83660;SHT30;73632;50.808;3.422;2024-02-14T06:02:44;10.45;87.87
83660;SHT30;73632;50.808;3.422;2024-02-14T06:05:09;10.45;87.97
83660;SHT30;73632;50.808;3.422;2024-02-14T06:07:36;10.38;88.17
83660;SHT30;73632;50.808;3.422;2024-02-14T06:10:02;10.41;88.11
83660;SHT30;73632;50.808;3.422;2024-02-14T06:12:28;10.38;88.18
83660;SHT30;73632;50.808;3.422;2024-02-14T06:14:55;10.44;88.19
83660;SHT30;73632;50.808;3.422;2024-02-14T06:17:20;10.41;88.13
83660;SHT30;73632;50.808;3.422;2024-02-14T06:19:45;10.50;87.86
83660;SHT30;73632;50.808;3.422;2024-02-14T06:22:11;10.47;88.04
83660;SHT30;73632;50.808;3.422;2024-02-14T06:24:36;10.48;88.01
83660;SHT30;73632;50.808;3.422;2024-02-14T06:27:02;10.48;88.10
83660;SHT30;73632;50.808;3.422;2024-02-14T06:29:27;10.45;87.97
83660;SHT30;73632;50.808;3.422;2024-02-14T06:31:53;10.51;87.83
83660;SHT30;73632;50.808;3.422;2024-02-14T06:34:19;10.54;87.86
83660;SHT30;73632;50.808;3.422;2024-02-14T06:36:46;10.51;87.92
83660;SHT30;73632;50.808;3.422;2024-02-14T06:39:11;10.47;87.89
83660;SHT30;73632;50.808;3.422;2024-02-14T06:41:37;10.53;87.86
83660;SHT30;73632;50.808;3.422;2024-02-14T06:44:04;10.44;88.11
83660;SHT30;73632;50.808;3.422;2024-02-14T06:46:29;10.51;87.98
83660;SHT30;73632;50.808;3.422;2024-02-14T06:48:55;10.50;88.19
83660;SHT30;73632;50.808;3.422;2024-02-14T06:51:21;10.54;88.03
83660;SHT30;73632;50.808;3.422;2024-02-14T06:53:47;10.50;88.34
83660;SHT30;73632;50.808;3.422;2024-02-14T06:56:12;10.48;88.38
83660;SHT30;73632;50.808;3.422;2024-02-14T06:58:37;10.51;88.27
83660;SHT30;73632;50.808;3.422;2024-02-14T07:01:03;10.53;88.08
83660;SHT30;73632;50.808;3.422;2024-02-14T07:03:28;10.53;88.17
83660;SHT30;73632;50.808;3.422;2024-02-14T07:05:54;10.51;88.17
83660;SHT30;73632;50.808;3.422;2024-02-14T07:08:19;10.57;88.06
83660;SHT30;73632;50.808;3.422;2024-02-14T07:10:45;10.54;88.36
83660;SHT30;73632;50.808;3.422;2024-02-14T07:13:10;10.58;88.16
83660;SHT30;73632;50.808;3.422;2024-02-14T07:15:35;10.60;88.32
83660;SHT30;73632;50.808;3.422;2024-02-14T07:18:01;10.53;88.47
83660;SHT30;73632;50.808;3.422;2024-02-14T07:20:26;10.55;88.74
83660;SHT30;73632;50.808;3.422;2024-02-14T07:22:52;10.55;88.69
83660;SHT30;73632;50.808;3.422;2024-02-14T07:25:22;10.51;88.85
83660;SHT30;73632;50.808;3.422;2024-02-14T07:27:48;10.51;89.00
83660;SHT30;73632;50.808;3.422;2024-02-14T07:30:18;10.51;88.81
83660;SHT30;73632;50.808;3.422;2024-02-14T07:32:46;10.57;88.69
83660;SHT30;73632;50.808;3.422;2024-02-14T07:35:12;10.54;88.71
83660;SHT30;73632;50.808;3.422;2024-02-14T07:37:39;10.61;88.58
83660;SHT30;73632;50.808;3.422;2024-02-14T07:40:05;10.64;88.27
83660;SHT30;73632;50.808;3.422;2024-02-14T07:42:30;10.64;88.28
83660;SHT30;73632;50.808;3.422;2024-02-14T07:44:56;10.64;88.38
83660;SHT30;73632;50.808;3.422;2024-02-14T07:47:22;10.71;88.16
83660;SHT30;73632;50.808;3.422;2024-02-14T07:49:47;10.69;88.32
83660;SHT30;73632;50.808;3.422;2024-02-14T07:52:13;10.69;88.38
83660;SHT30;73632;50.808;3.422;2024-02-14T07:54:38;10.78;88.09
83660;SHT30;73632;50.808;3.422;2024-02-14T07:57:04;10.78;88.16
83660;SHT30;73632;50.808;3.422;2024-02-14T07:59:29;10.74;88.34
83660;SHT30;73632;50.808;3.422;2024-02-14T08:01:54;10.78;88.25
83660;SHT30;73632;50.808;3.422;2024-02-14T08:04:20;10.84;88.09
83660;SHT30;73632;50.808;3.422;2024-02-14T08:06:46;10.88;88.02
83660;SHT30;73632;50.808;3.422;2024-02-14T08:09:12;10.88;87.97
83660;SHT30;73632;50.808;3.422;2024-02-14T08:11:37;10.88;87.92
83660;SHT30;73632;50.808;3.422;2024-02-14T08:14:03;10.84;88.20
83660;SHT30;73632;50.808;3.422;2024-02-14T08:16:28;10.87;88.22
83660;SHT30;73632;50.808;3.422;2024-02-14T08:18:54;10.91;88.00
83660;SHT30;73632;50.808;3.422;2024-02-14T08:21:27;10.89;88.11
83660;SHT30;73632;50.808;3.422;2024-02-14T08:23:54;10.87;88.41
83660;SHT30;73632;50.808;3.422;2024-02-14T08:26:20;10.94;88.25
83660;SHT30;73632;50.808;3.422;2024-02-14T08:28:46;10.91;88.40
83660;SHT30;73632;50.808;3.422;2024-02-14T08:31:12;10.99;88.31
83660;SHT30;73632;50.808;3.422;2024-02-14T08:33:38;11.01;88.50
83660;SHT30;73632;50.808;3.422;2024-02-14T08:36:04;10.98;88.90
83660;SHT30;73632;50.808;3.422;2024-02-14T08:38:30;10.89;89.57
83660;SHT30;73632;50.808;3.422;2024-02-14T08:40:55;10.92;89.60
83660;SHT30;73632;50.808;3.422;2024-02-14T08:43:22;10.88;89.88
83660;SHT30;73632;50.808;3.422;2024-02-14T08:45:50;10.85;90.27
83660;SHT30;73632;50.808;3.422;2024-02-14T08:48:17;10.81;90.54
83660;SHT30;73632;50.808;3.422;2024-02-14T08:50:42;10.79;90.81
83660;SHT30;73632;50.808;3.422;2024-02-14T08:53:07;10.82;90.95
83660;SHT30;73632;50.808;3.422;2024-02-14T08:55:33;10.82;91.08
83660;SHT30;73632;50.808;3.422;2024-02-14T08:58:00;10.81;91.22
83660;SHT30;73632;50.808;3.422;2024-02-14T09:00:25;10.82;91.23
83660;SHT30;73632;50.808;3.422;2024-02-14T09:02:51;10.84;91.20
83660;SHT30;73632;50.808;3.422;2024-02-14T09:05:18;10.85;91.28
83660;SHT30;73632;50.808;3.422;2024-02-14T09:07:44;10.87;91.35
83660;SHT30;73632;50.808;3.422;2024-02-14T09:10:09;10.91;91.56
83660;SHT30;73632;50.808;3.422;2024-02-14T09:12:38;10.94;91.56
83660;SHT30;73632;50.808;3.422;2024-02-14T09:15:04;10.91;91.85
83660;SHT30;73632;50.808;3.422;2024-02-14T09:17:30;10.95;91.79
83660;SHT30;73632;50.808;3.422;2024-02-14T09:19:55;10.94;91.98
83660;SHT30;73632;50.808;3.422;2024-02-14T09:22:20;10.92;92.03
83660;SHT30;73632;50.808;3.422;2024-02-14T09:24:47;10.98;92.05
83660;SHT30;73632;50.808;3.422;2024-02-14T09:27:13;10.97;92.08
83660;SHT30;73632;50.808;3.422;2024-02-14T09:29:39;11.01;92.00
83660;SHT30;73632;50.808;3.422;2024-02-14T09:32:04;11.01;91.90
83660;SHT30;73632;50.808;3.422;2024-02-14T09:34:30;11.04;91.81
83660;SHT30;73632;50.808;3.422;2024-02-14T09:36:56;11.08;91.71
83660;SHT30;73632;50.808;3.422;2024-02-14T09:39:24;11.08;91.74
83660;SHT30;73632;50.808;3.422;2024-02-14T09:41:54;11.11;91.59
83660;SHT30;73632;50.808;3.422;2024-02-14T09:44:22;11.08;91.73
83660;SHT30;73632;50.808;3.422;2024-02-14T09:46:49;11.12;91.72
83660;SHT30;73632;50.808;3.422;2024-02-14T09:49:16;11.15;91.67
83660;SHT30;73632;50.808;3.422;2024-02-14T09:51:44;11.15;91.56
83660;SHT30;73632;50.808;3.422;2024-02-14T09:54:10;11.18;91.72
83660;SHT30;73632;50.808;3.422;2024-02-14T09:56:36;11.21;91.65
83660;SHT30;73632;50.808;3.422;2024-02-14T09:59:01;11.23;91.79
83660;SHT30;73632;50.808;3.422;2024-02-14T10:01:29;11.25;91.72
83660;SHT30;73632;50.808;3.422;2024-02-14T10:03:54;11.25;91.77
83660;SHT30;73632;50.808;3.422;2024-02-14T10:06:21;11.32;91.74
83660;SHT30;73632;50.808;3.422;2024-02-14T10:08:50;11.36;91.63
83660;SHT30;73632;50.808;3.422;2024-02-14T10:11:19;11.33;91.63
83660;SHT30;73632;50.808;3.422;2024-02-14T10:13:48;11.39;91.60
83660;SHT30;73632;50.808;3.422;2024-02-14T10:16:15;11.46;91.32
83660;SHT30;73632;50.808;3.422;2024-02-14T10:18:41;11.44;91.41
83660;SHT30;73632;50.808;3.422;2024-02-14T10:21:13;11.49;91.24
83660;SHT30;73632;50.808;3.422;2024-02-14T10:23:39;11.52;91.14
83660;SHT30;73632;50.808;3.422;2024-02-14T10:26:04;11.53;91.11
83660;SHT30;73632;50.808;3.422;2024-02-14T10:28:32;11.60;90.98
83660;SHT30;73632;50.808;3.422;2024-02-14T10:30:58;11.62;90.63
83660;SHT30;73632;50.808;3.422;2024-02-14T10:33:27;11.70;90.50
83660;SHT30;73632;50.808;3.422;2024-02-14T10:35:54;11.72;90.50
83660;SHT30;73632;50.808;3.422;2024-02-14T10:38:22;11.73;90.29
83660;SHT30;73632;50.808;3.422;2024-02-14T10:40:49;11.82;90.16
83660;SHT30;73632;50.808;3.422;2024-02-14T10:43:15;11.84;89.87
83660;SHT30;73632;50.808;3.422;2024-02-14T10:45:40;11.89;89.85
83660;SHT30;73632;50.808;3.422;2024-02-14T10:48:11;11.86;89.96
83660;SHT30;73632;50.808;3.422;2024-02-14T10:50:40;11.98;89.44
83660;SHT30;73632;50.808;3.422;2024-02-14T10:53:06;12.01;89.61
83660;SHT30;73632;50.808;3.422;2024-02-14T10:55:35;12.03;89.52
83660;SHT30;73632;50.808;3.422;2024-02-14T10:58:01;12.07;89.60
83660;SHT30;73632;50.808;3.422;2024-02-14T11:00:28;12.16;89.46
83660;SHT30;73632;50.808;3.422;2024-02-14T11:02:55;12.23;88.94
83660;SHT30;73632;50.808;3.422;2024-02-14T11:05:21;12.18;88.80
83660;SHT30;73632;50.808;3.422;2024-02-14T11:07:50;12.24;88.92
83660;SHT30;73632;50.808;3.422;2024-02-14T11:10:19;12.18;89.16
83660;SHT30;73632;50.808;3.422;2024-02-14T11:12:46;12.27;88.86
83660;SHT30;73632;50.808;3.422;2024-02-14T11:15:22;12.26;89.04
83660;SHT30;73632;50.808;3.422;2024-02-14T11:17:49;12.24;89.11
83660;SHT30;73632;50.808;3.422;2024-02-14T11:20:16;12.31;89.13
83660;SHT30;73632;50.808;3.422;2024-02-14T11:23:00;12.27;89.14
83660;SHT30;73632;50.808;3.422;2024-02-14T11:25:29;12.31;88.88
83660;SHT30;73632;50.808;3.422;2024-02-14T11:27:58;12.31;88.95
83660;SHT30;73632;50.808;3.422;2024-02-14T11:30:29;12.38;88.77
83660;SHT30;73632;50.808;3.422;2024-02-14T11:32:55;12.36;88.68
83660;SHT30;73632;50.808;3.422;2024-02-14T11:35:21;12.37;88.88
83660;SHT30;73632;50.808;3.422;2024-02-14T11:37:53;12.38;88.75
83660;SHT30;73632;50.808;3.422;2024-02-14T11:40:19;12.49;88.71
83660;SHT30;73632;50.808;3.422;2024-02-14T11:42:46;12.48;88.80
83660;SHT30;73632;50.808;3.422;2024-02-14T11:45:13;12.47;88.87
83660;SHT30;73632;50.808;3.422;2024-02-14T11:47:38;12.47;88.91
83660;SHT30;73632;50.808;3.422;2024-02-14T11:50:04;12.48;88.81
83660;SHT30;73632;50.808;3.422;2024-02-14T11:52:30;12.52;88.62
83660;SHT30;73632;50.808;3.422;2024-02-14T11:54:55;12.48;88.92
83660;SHT30;73632;50.808;3.422;2024-02-14T11:57:22;12.45;88.93
83660;SHT30;73632;50.808;3.422;2024-02-14T11:59:52;12.45;89.01
83660;SHT30;73632;50.808;3.422;2024-02-14T12:02:19;12.41;89.70
83660;SHT30;73632;50.808;3.422;2024-02-14T12:04:45;12.38;89.75
83660;SHT30;73632;50.808;3.422;2024-02-14T12:07:12;12.37;89.85
83660;SHT30;73632;50.808;3.422;2024-02-14T12:09:38;12.30;90.34
83660;SHT30;73632;50.808;3.422;2024-02-14T12:12:04;12.26;90.56
83660;SHT30;73632;50.808;3.422;2024-02-14T12:14:30;12.28;90.71
83660;SHT30;73632;50.808;3.422;2024-02-14T12:17:00;12.26;90.79
83660;SHT30;73632;50.808;3.422;2024-02-14T12:19:27;12.21;91.02
83660;SHT30;73632;50.808;3.422;2024-02-14T12:21:55;12.23;91.12
83660;SHT30;73632;50.808;3.422;2024-02-14T12:24:27;12.26;91.27
83660;SHT30;73632;50.808;3.422;2024-02-14T12:26:54;12.31;90.80
83660;SHT30;73632;50.808;3.422;2024-02-14T12:29:19;12.33;90.83
83660;SHT30;73632;50.808;3.422;2024-02-14T12:31:44;12.28;91.27
83660;SHT30;73632;50.808;3.422;2024-02-14T12:34:11;12.34;90.95
83660;SHT30;73632;50.808;3.422;2024-02-14T12:36:37;12.31;91.09
83660;SHT30;73632;50.808;3.422;2024-02-14T12:39:03;12.36;91.15
83660;SHT30;73632;50.808;3.422;2024-02-14T12:41:29;12.33;91.17
83660;SHT30;73632;50.808;3.422;2024-02-14T12:43:55;12.28;91.20
83660;SHT30;73632;50.808;3.422;2024-02-14T12:46:21;12.34;91.29
83660;SHT30;73632;50.808;3.422;2024-02-14T12:48:46;12.42;90.93
83660;SHT30;73632;50.808;3.422;2024-02-14T12:51:13;12.40;90.91
83660;SHT30;73632;50.808;3.422;2024-02-14T12:53:39;12.38;90.96
83660;SHT30;73632;50.808;3.422;2024-02-14T12:56:05;12.37;91.04
83660;SHT30;73632;50.808;3.422;2024-02-14T12:58:32;12.45;91.04
83660;SHT30;73632;50.808;3.422;2024-02-14T13:00:57;12.44;91.05
83660;SHT30;73632;50.808;3.422;2024-02-14T13:03:24;12.41;91.15
83660;SHT30;73632;50.808;3.422;2024-02-14T13:05:50;12.44;91.15
83660;SHT30;73632;50.808;3.422;2024-02-14T13:08:16;12.40;91.38
83660;SHT30;73632;50.808;3.422;2024-02-14T13:10:42;12.47;91.31
83660;SHT30;73632;50.808;3.422;2024-02-14T13:13:07;12.47;91.18
83660;SHT30;73632;50.808;3.422;2024-02-14T13:15:32;12.44;91.33
83660;SHT30;73632;50.808;3.422;2024-02-14T13:17:58;12.49;91.14
83660;SHT30;73632;50.808;3.422;2024-02-14T13:20:24;12.51;91.14
83660;SHT30;73632;50.808;3.422;2024-02-14T13:22:49;12.57;90.86
83660;SHT30;73632;50.808;3.422;2024-02-14T13:25:15;12.62;90.70
83660;SHT30;73632;50.808;3.422;2024-02-14T13:27:40;12.61;90.98
83660;SHT30;73632;50.808;3.422;2024-02-14T13:30:06;12.64;91.02
83660;SHT30;73632;50.808;3.422;2024-02-14T13:32:32;12.65;90.76
83660;SHT30;73632;50.808;3.422;2024-02-14T13:34:58;12.64;90.82
83660;SHT30;73632;50.808;3.422;2024-02-14T13:37:23;12.68;90.75
83660;SHT30;73632;50.808;3.422;2024-02-14T13:39:50;12.68;90.80
83660;SHT30;73632;50.808;3.422;2024-02-14T13:42:15;12.74;90.33
83660;SHT30;73632;50.808;3.422;2024-02-14T13:44:41;12.69;90.41
83660;SHT30;73632;50.808;3.422;2024-02-14T13:47:06;12.75;90.38
83660;SHT30;73632;50.808;3.422;2024-02-14T13:49:32;12.77;90.27
83660;SHT30;73632;50.808;3.422;2024-02-14T13:51:57;12.74;90.27
83660;SHT30;73632;50.808;3.422;2024-02-14T13:54:24;12.75;90.22
83660;SHT30;73632;50.808;3.422;2024-02-14T13:56:50;12.74;90.21
83660;SHT30;73632;50.808;3.422;2024-02-14T13:59:16;12.78;90.18
83660;SHT30;73632;50.808;3.422;2024-02-14T14:01:42;12.77;90.18
83660;SHT30;73632;50.808;3.422;2024-02-14T14:04:07;12.77;90.28
83660;SHT30;73632;50.808;3.422;2024-02-14T14:06:33;12.78;90.34
83660;SHT30;73632;50.808;3.422;2024-02-14T14:08:59;12.75;90.39
83660;SHT30;73632;50.808;3.422;2024-02-14T14:11:25;12.81;90.22
83660;SHT30;73632;50.808;3.422;2024-02-14T14:13:50;12.85;90.24
83660;SHT30;73632;50.808;3.422;2024-02-14T14:16:16;12.85;90.33
83660;SHT30;73632;50.808;3.422;2024-02-14T14:18:42;12.87;90.33
83660;SHT30;73632;50.808;3.422;2024-02-14T14:21:08;12.88;90.44
83660;SHT30;73632;50.808;3.422;2024-02-14T14:23:33;12.98;90.21
83660;SHT30;73632;50.808;3.422;2024-02-14T14:25:59;13.08;90.06
83660;SHT30;73632;50.808;3.422;2024-02-14T14:28:25;13.01;89.98
83660;SHT30;73632;50.808;3.422;2024-02-14T14:30:51;13.03;89.82
83660;SHT30;73632;50.808;3.422;2024-02-14T14:33:19;12.96;90.04
83660;SHT30;73632;50.808;3.422;2024-02-14T14:35:44;12.99;90.01
83660;SHT30;73632;50.808;3.422;2024-02-14T14:38:10;12.99;89.92
83660;SHT30;73632;50.808;3.422;2024-02-14T14:40:36;12.93;90.10
83660;SHT30;73632;50.808;3.422;2024-02-14T14:43:03;12.98;89.62
83660;SHT30;73632;50.808;3.422;2024-02-14T14:45:28;12.92;89.98
83660;SHT30;73632;50.808;3.422;2024-02-14T14:47:54;12.98;89.66
83660;SHT30;73632;50.808;3.422;2024-02-14T14:50:19;12.98;89.93
83660;SHT30;73632;50.808;3.422;2024-02-14T14:52:46;12.96;89.78
83660;SHT30;73632;50.808;3.422;2024-02-14T14:55:12;12.88;90.04
83660;SHT30;73632;50.808;3.422;2024-02-14T14:57:37;12.88;90.13
83660;SHT30;73632;50.808;3.422;2024-02-14T15:00:15;12.91;90.01
83660;SHT30;73632;50.808;3.422;2024-02-14T15:02:42;12.87;89.82
83660;SHT30;73632;50.808;3.422;2024-02-14T15:05:13;12.87;89.99
83660;SHT30;73632;50.808;3.422;2024-02-14T15:07:39;12.87;90.09
83660;SHT30;73632;50.808;3.422;2024-02-14T15:10:06;12.89;89.96
83660;SHT30;73632;50.808;3.422;2024-02-14T15:12:33;12.84;90.12
83660;SHT30;73632;50.808;3.422;2024-02-14T15:15:02;12.78;90.32
83660;SHT30;73632;50.808;3.422;2024-02-14T15:17:27;12.79;90.48
83660;SHT30;73632;50.808;3.422;2024-02-14T15:19:55;12.84;90.44
83660;SHT30;73632;50.808;3.422;2024-02-14T15:22:20;12.72;90.82
83660;SHT30;73632;50.808;3.422;2024-02-14T15:24:45;12.74;91.03
83660;SHT30;73632;50.808;3.422;2024-02-14T15:27:12;12.77;90.95
83660;SHT30;73632;50.808;3.422;2024-02-14T15:29:46;12.72;91.09